Gobernador Costa, Argentina
Current Conditions -  °F | °C
As of 11:00 PM on Monday 20 Oct 2014 (Local Time) from SCAP Reporting Station
Clear Clear  
Wind Chill: 52°   Ceiling: Unl
Heat Index: 52°   Visibility: NA
Dew Point: 48°   Wind: 2mph
Humidity: 88%   Direction: NA
Pressure: 30.03"   Gusts: NA
Location:  44.07°S, 70.58°W
Report Text: SCAP 210200Z AUTO VRB02KT //// // NSC 11/09 Q1017
Loading
Personal Weather Stations






























Interactive Weather Map
Tropical Storm Tracking
New forecast layout! Learn more

10-Day Weather Forecast

Advertisements
Track Severe Weather on mobile